sensor_id;sensor_type;location;lat;lon;timestamp;P1;P2;P0
77692;PMS5003;66984;47.404;18.836;2023-09-19T00:00:05;19.25;19.00;9.75
77692;PMS5003;66984;47.404;18.836;2023-09-19T00:01:09;19.00;18.00;8.00
77692;PMS5003;66984;47.404;18.836;2023-09-19T00:02:14;20.00;20.00;9.00
77692;PMS5003;66984;47.404;18.836;2023-09-19T00:03:17;19.25;19.25;10.00
77692;PMS5003;66984;47.404;18.836;2023-09-19T00:04:20;19.00;19.00;9.00
77692;PMS5003;66984;47.404;18.836;2023-09-19T00:05:28;20.75;19.00;9.00
77692;PMS5003;66984;47.404;18.836;2023-09-19T00:06:32;21.75;19.00;8.00
77692;PMS5003;66984;47.404;18.836;2023-09-19T00:07:35;22.00;19.75;9.00
77692;PMS5003;66984;47.404;18.836;2023-09-19T00:08:39;20.00;19.00;8.50
77692;PMS5003;66984;47.404;18.836;2023-09-19T00:09:42;20.75;20.75;8.00
77692;PMS5003;66984;47.404;18.836;2023-09-19T00:10:46;19.00;18.00;9.00
77692;PMS5003;66984;47.404;18.836;2023-09-19T00:11:53;21.00;20.00;9.75
77692;PMS5003;66984;47.404;18.836;2023-09-19T00:12:57;21.00;19.75;8.00
77692;PMS5003;66984;47.404;18.836;2023-09-19T00:14:07;20.00;20.00;8.00
77692;PMS5003;66984;47.404;18.836;2023-09-19T00:15:11;19.00;19.00;8.75
77692;PMS5003;66984;47.404;18.836;2023-09-19T00:16:14;19.50;19.25;8.00
77692;PMS5003;66984;47.404;18.836;2023-09-19T00:17:17;21.50;21.50;9.00
77692;PMS5003;66984;47.404;18.836;2023-09-19T00:18:21;21.00;21.00;10.00
77692;PMS5003;66984;47.404;18.836;2023-09-19T00:19:24;21.50;21.00;10.25
77692;PMS5003;66984;47.404;18.836;2023-09-19T00:20:27;21.50;20.25;9.00
77692;PMS5003;66984;47.404;18.836;2023-09-19T00:21:32;22.00;20.50;9.50
77692;PMS5003;66984;47.404;18.836;2023-09-19T00:22:35;21.75;19.00;9.50
77692;PMS5003;66984;47.404;18.836;2023-09-19T00:23:42;20.00;18.75;9.00
77692;PMS5003;66984;47.404;18.836;2023-09-19T00:24:45;21.00;19.25;8.25
77692;PMS5003;66984;47.404;18.836;2023-09-19T00:25:48;21.00;20.00;9.75
77692;PMS5003;66984;47.404;18.836;2023-09-19T00:26:52;20.00;20.00;11.25
77692;PMS5003;66984;47.404;18.836;2023-09-19T00:27:56;20.00;20.00;11.00
77692;PMS5003;66984;47.404;18.836;2023-09-19T00:29:00;20.50;19.50;8.00
77692;PMS5003;66984;47.404;18.836;2023-09-19T00:30:07;23.00;22.00;10.25
77692;PMS5003;66984;47.404;18.836;2023-09-19T00:31:16;21.50;20.50;12.00
77692;PMS5003;66984;47.404;18.836;2023-09-19T00:32:19;21.50;21.00;11.00
77692;PMS5003;66984;47.404;18.836;2023-09-19T00:33:23;22.00;21.00;10.00
77692;PMS5003;66984;47.404;18.836;2023-09-19T00:34:27;20.00;20.00;10.00
77692;PMS5003;66984;47.404;18.836;2023-09-19T00:35:30;21.00;20.00;9.00
77692;PMS5003;66984;47.404;18.836;2023-09-19T00:36:33;21.00;20.00;9.75
77692;PMS5003;66984;47.404;18.836;2023-09-19T00:37:36;20.00;19.00;10.00
77692;PMS5003;66984;47.404;18.836;2023-09-19T00:38:42;22.50;22.00;10.00
77692;PMS5003;66984;47.404;18.836;2023-09-19T00:39:47;22.00;22.00;9.25
77692;PMS5003;66984;47.404;18.836;2023-09-19T00:40:50;22.00;21.00;10.00
77692;PMS5003;66984;47.404;18.836;2023-09-19T00:41:59;22.00;21.00;10.00
77692;PMS5003;66984;47.404;18.836;2023-09-19T00:43:07;21.00;20.00;10.00
77692;PMS5003;66984;47.404;18.836;2023-09-19T00:44:10;21.75;21.75;11.00
77692;PMS5003;66984;47.404;18.836;2023-09-19T00:45:15;23.00;22.00;10.25
77692;PMS5003;66984;47.404;18.836;2023-09-19T00:46:19;24.00;23.00;11.00
77692;PMS5003;66984;47.404;18.836;2023-09-19T00:47:22;22.00;21.00;11.00
77692;PMS5003;66984;47.404;18.836;2023-09-19T00:48:26;23.75;20.00;11.00
77692;PMS5003;66984;47.404;18.836;2023-09-19T00:49:32;21.00;21.00;9.00
77692;PMS5003;66984;47.404;18.836;2023-09-19T00:50:35;21.75;20.00;10.00
77692;PMS5003;66984;47.404;18.836;2023-09-19T00:51:38;23.00;21.00;10.00
77692;PMS5003;66984;47.404;18.836;2023-09-19T00:52:44;22.00;20.00;11.00
77692;PMS5003;66984;47.404;18.836;2023-09-19T00:53:49;23.00;22.00;10.00
77692;PMS5003;66984;47.404;18.836;2023-09-19T00:54:52;24.00;21.50;9.50
77692;PMS5003;66984;47.404;18.836;2023-09-19T00:55:55;24.00;22.50;11.00
77692;PMS5003;66984;47.404;18.836;2023-09-19T00:56:58;24.00;22.00;11.00
77692;PMS5003;66984;47.404;18.836;2023-09-19T00:58:01;24.00;22.50;12.00
77692;PMS5003;66984;47.404;18.836;2023-09-19T00:59:04;24.75;23.75;11.00
77692;PMS5003;66984;47.404;18.836;2023-09-19T01:00:08;23.00;22.00;10.00
77692;PMS5003;66984;47.404;18.836;2023-09-19T01:01:18;22.00;20.00;10.75
77692;PMS5003;66984;47.404;18.836;2023-09-19T01:02:21;24.00;22.75;10.00
77692;PMS5003;66984;47.404;18.836;2023-09-19T01:03:24;25.00;22.75;11.25
77692;PMS5003;66984;47.404;18.836;2023-09-19T01:04:28;24.00;23.75;13.25
77692;PMS5003;66984;47.404;18.836;2023-09-19T01:05:31;23.75;23.00;12.00
77692;PMS5003;66984;47.404;18.836;2023-09-19T01:06:35;23.00;22.00;12.00
77692;PMS5003;66984;47.404;18.836;2023-09-19T01:07:39;23.00;21.50;12.00
77692;PMS5003;66984;47.404;18.836;2023-09-19T01:08:47;23.00;22.00;11.00
77692;PMS5003;66984;47.404;18.836;2023-09-19T01:09:49;21.50;20.50;10.00
77692;PMS5003;66984;47.404;18.836;2023-09-19T01:10:55;23.25;21.25;11.00
77692;PMS5003;66984;47.404;18.836;2023-09-19T01:12:04;27.00;24.00;12.75
77692;PMS5003;66984;47.404;18.836;2023-09-19T01:15:06;25.00;24.75;13.25
77692;PMS5003;66984;47.404;18.836;2023-09-19T01:17:53;25.00;24.00;12.00
77692;PMS5003;66984;47.404;18.836;2023-09-19T01:21:57;24.00;24.00;11.50
77692;PMS5003;66984;47.404;18.836;2023-09-19T01:23:24;23.50;22.50;12.00
77692;PMS5003;66984;47.404;18.836;2023-09-19T01:28:51;24.00;24.00;12.50
77692;PMS5003;66984;47.404;18.836;2023-09-19T01:30:13;22.50;22.50;11.50
77692;PMS5003;66984;47.404;18.836;2023-09-19T01:31:19;25.00;25.00;12.00
77692;PMS5003;66984;47.404;18.836;2023-09-19T01:32:26;26.00;24.00;12.00
77692;PMS5003;66984;47.404;18.836;2023-09-19T01:35:06;25.50;23.50;12.50
77692;PMS5003;66984;47.404;18.836;2023-09-19T01:36:14;24.00;23.00;14.00
77692;PMS5003;66984;47.404;18.836;2023-09-19T01:37:19;25.00;23.00;15.00
77692;PMS5003;66984;47.404;18.836;2023-09-19T01:38:29;27.25;24.75;15.00
77692;PMS5003;66984;47.404;18.836;2023-09-19T01:39:32;27.00;26.00;15.00
77692;PMS5003;66984;47.404;18.836;2023-09-19T01:40:37;25.00;25.00;14.00
77692;PMS5003;66984;47.404;18.836;2023-09-19T01:42:05;29.00;28.00;14.50
77692;PMS5003;66984;47.404;18.836;2023-09-19T01:43:25;28.00;27.00;15.00
77692;PMS5003;66984;47.404;18.836;2023-09-19T01:47:04;27.75;25.00;16.00
77692;PMS5003;66984;47.404;18.836;2023-09-19T01:50:49;28.50;27.00;16.00
77692;PMS5003;66984;47.404;18.836;2023-09-19T01:52:14;24.75;24.75;15.00
77692;PMS5003;66984;47.404;18.836;2023-09-19T01:53:23;25.00;25.00;14.25
77692;PMS5003;66984;47.404;18.836;2023-09-19T01:54:31;27.00;27.00;14.00
77692;PMS5003;66984;47.404;18.836;2023-09-19T01:55:43;24.00;24.00;14.25
77692;PMS5003;66984;47.404;18.836;2023-09-19T01:56:59;25.00;25.00;15.00
77692;PMS5003;66984;47.404;18.836;2023-09-19T01:58:20;25.50;25.00;14.00
77692;PMS5003;66984;47.404;18.836;2023-09-19T01:59:31;27.00;25.00;15.50
77692;PMS5003;66984;47.404;18.836;2023-09-19T02:00:42;27.25;26.00;15.75
77692;PMS5003;66984;47.404;18.836;2023-09-19T02:01:47;28.00;27.00;18.00
77692;PMS5003;66984;47.404;18.836;2023-09-19T02:02:52;27.50;27.00;17.50
77692;PMS5003;66984;47.404;18.836;2023-09-19T02:03:58;27.50;26.75;17.00
77692;PMS5003;66984;47.404;18.836;2023-09-19T02:05:01;27.50;26.00;15.00
77692;PMS5003;66984;47.404;18.836;2023-09-19T02:06:07;29.00;27.00;15.00
77692;PMS5003;66984;47.404;18.836;2023-09-19T02:07:13;29.00;27.00;17.00
77692;PMS5003;66984;47.404;18.836;2023-09-19T02:08:18;27.00;26.00;16.50
77692;PMS5003;66984;47.404;18.836;2023-09-19T02:09:22;28.00;28.00;17.25
77692;PMS5003;66984;47.404;18.836;2023-09-19T02:10:25;26.25;26.00;17.00
77692;PMS5003;66984;47.404;18.836;2023-09-19T02:11:28;28.25;27.00;16.25
77692;PMS5003;66984;47.404;18.836;2023-09-19T02:12:32;26.00;25.00;16.00
77692;PMS5003;66984;47.404;18.836;2023-09-19T02:13:35;26.00;25.50;16.00
77692;PMS5003;66984;47.404;18.836;2023-09-19T02:14:38;28.00;26.50;17.00
77692;PMS5003;66984;47.404;18.836;2023-09-19T02:15:41;28.50;27.50;16.50
77692;PMS5003;66984;47.404;18.836;2023-09-19T02:16:46;29.75;28.25;16.00
77692;PMS5003;66984;47.404;18.836;2023-09-19T02:17:50;29.00;27.00;15.00
77692;PMS5003;66984;47.404;18.836;2023-09-19T02:18:54;29.00;26.75;15.25
77692;PMS5003;66984;47.404;18.836;2023-09-19T02:19:57;29.00;27.00;16.00
77692;PMS5003;66984;47.404;18.836;2023-09-19T02:21:01;29.75;28.50;16.75
77692;PMS5003;66984;47.404;18.836;2023-09-19T02:22:04;27.50;27.00;15.75
77692;PMS5003;66984;47.404;18.836;2023-09-19T02:23:10;30.00;29.00;17.00
77692;PMS5003;66984;47.404;18.836;2023-09-19T02:24:13;29.00;28.00;18.00
77692;PMS5003;66984;47.404;18.836;2023-09-19T02:25:17;28.00;27.00;17.00
77692;PMS5003;66984;47.404;18.836;2023-09-19T02:26:22;27.25;26.00;17.00
77692;PMS5003;66984;47.404;18.836;2023-09-19T02:27:29;30.00;27.00;17.25
77692;PMS5003;66984;47.404;18.836;2023-09-19T02:28:33;28.50;26.00;17.00
77692;PMS5003;66984;47.404;18.836;2023-09-19T02:29:38;28.00;25.00;17.00
77692;PMS5003;66984;47.404;18.836;2023-09-19T02:30:41;27.00;26.00;17.00
77692;PMS5003;66984;47.404;18.836;2023-09-19T02:31:44;27.50;26.00;15.50
77692;PMS5003;66984;47.404;18.836;2023-09-19T02:32:48;29.00;27.00;17.00
77692;PMS5003;66984;47.404;18.836;2023-09-19T02:33:52;28.50;27.00;17.00
77692;PMS5003;66984;47.404;18.836;2023-09-19T02:34:55;29.75;28.75;17.00
77692;PMS5003;66984;47.404;18.836;2023-09-19T02:35:58;28.25;26.75;17.00
77692;PMS5003;66984;47.404;18.836;2023-09-19T02:37:05;30.00;29.00;17.00
77692;PMS5003;66984;47.404;18.836;2023-09-19T02:38:08;30.50;29.00;18.00
77692;PMS5003;66984;47.404;18.836;2023-09-19T02:39:13;27.00;26.00;18.00
77692;PMS5003;66984;47.404;18.836;2023-09-19T02:40:16;28.00;28.00;17.00
77692;PMS5003;66984;47.404;18.836;2023-09-19T02:41:22;30.25;29.00;17.00
77692;PMS5003;66984;47.404;18.836;2023-09-19T02:42:25;30.00;29.00;17.75
77692;PMS5003;66984;47.404;18.836;2023-09-19T02:43:28;30.00;29.00;18.00
77692;PMS5003;66984;47.404;18.836;2023-09-19T02:44:31;30.50;29.00;18.00
77692;PMS5003;66984;47.404;18.836;2023-09-19T02:45:35;32.00;28.50;18.00
77692;PMS5003;66984;47.404;18.836;2023-09-19T02:46:38;26.00;25.50;16.25
77692;PMS5003;66984;47.404;18.836;2023-09-19T02:47:41;30.00;27.00;17.00
77692;PMS5003;66984;47.404;18.836;2023-09-19T02:48:44;28.00;27.00;16.75
77692;PMS5003;66984;47.404;18.836;2023-09-19T02:49:46;30.00;29.00;18.00
77692;PMS5003;66984;47.404;18.836;2023-09-19T02:50:50;29.75;29.00;17.00
77692;PMS5003;66984;47.404;18.836;2023-09-19T02:51:53;30.00;29.00;16.75
77692;PMS5003;66984;47.404;18.836;2023-09-19T02:52:57;29.00;28.75;17.00
77692;PMS5003;66984;47.404;18.836;2023-09-19T02:54:00;30.00;27.50;18.00
77692;PMS5003;66984;47.404;18.836;2023-09-19T02:55:03;34.75;29.00;18.00
77692;PMS5003;66984;47.404;18.836;2023-09-19T02:56:08;31.25;29.00;17.00
77692;PMS5003;66984;47.404;18.836;2023-09-19T02:57:12;29.50;27.50;17.50
77692;PMS5003;66984;47.404;18.836;2023-09-19T02:58:16;30.50;28.50;17.25
77692;PMS5003;66984;47.404;18.836;2023-09-19T02:59:21;30.00;29.00;19.00
77692;PMS5003;66984;47.404;18.836;2023-09-19T03:00:24;30.00;29.00;19.00
77692;PMS5003;66984;47.404;18.836;2023-09-19T03:01:27;28.00;27.00;19.00
77692;PMS5003;66984;47.404;18.836;2023-09-19T03:02:33;30.00;28.00;18.00
77692;PMS5003;66984;47.404;18.836;2023-09-19T03:03:37;28.25;26.00;17.00
77692;PMS5003;66984;47.404;18.836;2023-09-19T03:04:41;24.25;23.50;15.00
77692;PMS5003;66984;47.404;18.836;2023-09-19T03:05:44;28.00;27.00;16.00
77692;PMS5003;66984;47.404;18.836;2023-09-19T03:06:53;29.50;28.25;16.00
77692;PMS5003;66984;47.404;18.836;2023-09-19T03:08:01;29.00;28.75;16.00
77692;PMS5003;66984;47.404;18.836;2023-09-19T03:09:04;29.50;26.00;16.00
77692;PMS5003;66984;47.404;18.836;2023-09-19T03:10:14;27.75;25.75;17.00
77692;PMS5003;66984;47.404;18.836;2023-09-19T03:11:18;26.50;26.00;16.00
77692;PMS5003;66984;47.404;18.836;2023-09-19T03:12:23;25.50;25.00;15.00
77692;PMS5003;66984;47.404;18.836;2023-09-19T03:13:26;27.75;26.00;17.00
77692;PMS5003;66984;47.404;18.836;2023-09-19T03:14:29;27.50;26.50;16.25
77692;PMS5003;66984;47.404;18.836;2023-09-19T03:15:40;30.75;28.00;16.00
77692;PMS5003;66984;47.404;18.836;2023-09-19T03:16:46;29.25;28.50;16.00
77692;PMS5003;66984;47.404;18.836;2023-09-19T03:17:49;29.75;29.00;16.00
77692;PMS5003;66984;47.404;18.836;2023-09-19T03:18:52;28.50;28.00;16.75
77692;PMS5003;66984;47.404;18.836;2023-09-19T03:19:55;30.25;29.00;17.00
77692;PMS5003;66984;47.404;18.836;2023-09-19T03:20:59;27.00;26.00;16.00
77692;PMS5003;66984;47.404;18.836;2023-09-19T03:22:02;30.50;28.75;17.00
77692;PMS5003;66984;47.404;18.836;2023-09-19T03:23:05;31.00;29.00;16.50
77692;PMS5003;66984;47.404;18.836;2023-09-19T03:24:08;29.00;27.00;15.00
77692;PMS5003;66984;47.404;18.836;2023-09-19T03:25:11;28.25;28.00;16.00
77692;PMS5003;66984;47.404;18.836;2023-09-19T03:26:15;26.25;26.00;15.00
77692;PMS5003;66984;47.404;18.836;2023-09-19T03:27:18;27.00;26.00;16.00
77692;PMS5003;66984;47.404;18.836;2023-09-19T03:28:23;26.00;25.00;16.00
77692;PMS5003;66984;47.404;18.836;2023-09-19T03:29:26;28.25;28.00;18.00
77692;PMS5003;66984;47.404;18.836;2023-09-19T03:30:29;28.00;28.00;17.00
77692;PMS5003;66984;47.404;18.836;2023-09-19T03:31:32;27.50;27.25;17.25
77692;PMS5003;66984;47.404;18.836;2023-09-19T03:32:35;30.00;28.50;16.00
77692;PMS5003;66984;47.404;18.836;2023-09-19T03:33:38;29.25;27.50;14.25
77692;PMS5003;66984;47.404;18.836;2023-09-19T03:34:42;29.25;27.00;16.00
77692;PMS5003;66984;47.404;18.836;2023-09-19T03:35:51;31.00;29.00;16.25
77692;PMS5003;66984;47.404;18.836;2023-09-19T03:36:55;29.00;28.00;16.00
77692;PMS5003;66984;47.404;18.836;2023-09-19T03:37:58;28.00;27.00;18.00
77692;PMS5003;66984;47.404;18.836;2023-09-19T03:39:01;27.00;27.00;18.00
77692;PMS5003;66984;47.404;18.836;2023-09-19T03:40:08;28.00;27.75;19.00
77692;PMS5003;66984;47.404;18.836;2023-09-19T03:41:12;29.00;27.50;18.00
77692;PMS5003;66984;47.404;18.836;2023-09-19T03:42:16;29.00;28.00;18.25
77692;PMS5003;66984;47.404;18.836;2023-09-19T03:43:20;30.00;29.00;19.00
77692;PMS5003;66984;47.404;18.836;2023-09-19T03:44:23;28.00;27.50;18.50
77692;PMS5003;66984;47.404;18.836;2023-09-19T03:45:25;28.00;26.00;17.00
77692;PMS5003;66984;47.404;18.836;2023-09-19T03:46:28;28.50;27.00;16.00
77692;PMS5003;66984;47.404;18.836;2023-09-19T03:47:32;31.50;28.50;17.00
77692;PMS5003;66984;47.404;18.836;2023-09-19T03:48:35;32.00;30.00;17.00
77692;PMS5003;66984;47.404;18.836;2023-09-19T03:49:38;31.00;29.00;17.00
77692;PMS5003;66984;47.404;18.836;2023-09-19T03:50:41;28.25;28.25;16.00
77692;PMS5003;66984;47.404;18.836;2023-09-19T03:51:46;30.00;28.25;16.00
77692;PMS5003;66984;47.404;18.836;2023-09-19T03:52:49;32.00;30.00;16.75
77692;PMS5003;66984;47.404;18.836;2023-09-19T03:53:52;31.00;29.00;18.00
77692;PMS5003;66984;47.404;18.836;2023-09-19T03:54:55;29.00;28.00;18.00
77692;PMS5003;66984;47.404;18.836;2023-09-19T03:55:57;30.00;28.00;19.00
77692;PMS5003;66984;47.404;18.836;2023-09-19T03:57:03;33.00;30.00;18.00
77692;PMS5003;66984;47.404;18.836;2023-09-19T03:58:06;31.50;29.00;17.00
77692;PMS5003;66984;47.404;18.836;2023-09-19T03:59:09;31.00;29.00;17.00
77692;PMS5003;66984;47.404;18.836;2023-09-19T04:00:13;29.75;29.00;17.75
77692;PMS5003;66984;47.404;18.836;2023-09-19T04:01:17;31.75;30.00;18.00
77692;PMS5003;66984;47.404;18.836;2023-09-19T04:02:21;31.00;29.75;17.00
77692;PMS5003;66984;47.404;18.836;2023-09-19T04:03:27;28.00;28.00;18.00
77692;PMS5003;66984;47.404;18.836;2023-09-19T04:04:37;27.00;27.00;17.00
77692;PMS5003;66984;47.404;18.836;2023-09-19T04:05:40;28.75;28.25;17.00
77692;PMS5003;66984;47.404;18.836;2023-09-19T04:06:43;31.00;29.00;19.00
77692;PMS5003;66984;47.404;18.836;2023-09-19T04:07:46;31.00;30.00;18.25
77692;PMS5003;66984;47.404;18.836;2023-09-19T04:08:49;31.25;29.00;18.00
77692;PMS5003;66984;47.404;18.836;2023-09-19T04:09:52;30.00;29.00;19.00
77692;PMS5003;66984;47.404;18.836;2023-09-19T04:10:56;31.50;30.00;18.00
77692;PMS5003;66984;47.404;18.836;2023-09-19T04:11:59;32.00;29.50;17.00
77692;PMS5003;66984;47.404;18.836;2023-09-19T04:13:02;29.75;29.00;17.00
77692;PMS5003;66984;47.404;18.836;2023-09-19T04:14:06;30.00;29.00;18.00
77692;PMS5003;66984;47.404;18.836;2023-09-19T04:15:20;29.50;29.00;19.00
77692;PMS5003;66984;47.404;18.836;2023-09-19T04:16:24;32.00;30.00;19.00
77692;PMS5003;66984;47.404;18.836;2023-09-19T04:17:28;31.00;29.00;18.00
77692;PMS5003;66984;47.404;18.836;2023-09-19T04:18:31;34.00;31.00;19.00
77692;PMS5003;66984;47.404;18.836;2023-09-19T04:19:36;31.00;29.00;19.00
77692;PMS5003;66984;47.404;18.836;2023-09-19T04:20:39;29.50;29.00;19.00
77692;PMS5003;66984;47.404;18.836;2023-09-19T04:21:42;30.00;29.00;19.00
77692;PMS5003;66984;47.404;18.836;2023-09-19T04:22:45;30.00;28.00;19.00
77692;PMS5003;66984;47.404;18.836;2023-09-19T04:23:49;30.00;28.00;19.00
77692;PMS5003;66984;47.404;18.836;2023-09-19T04:24:52;30.00;26.00;18.00
77692;PMS5003;66984;47.404;18.836;2023-09-19T04:25:55;31.00;28.50;18.00
77692;PMS5003;66984;47.404;18.836;2023-09-19T04:26:58;31.50;28.00;19.00
77692;PMS5003;66984;47.404;18.836;2023-09-19T04:28:01;31.25;29.00;19.00
77692;PMS5003;66984;47.404;18.836;2023-09-19T04:29:07;31.75;29.75;19.00
77692;PMS5003;66984;47.404;18.836;2023-09-19T04:30:12;27.00;27.00;18.00
77692;PMS5003;66984;47.404;18.836;2023-09-19T04:31:15;26.00;25.00;16.00
77692;PMS5003;66984;47.404;18.836;2023-09-19T04:32:19;23.50;23.00;12.00
77692;PMS5003;66984;47.404;18.836;2023-09-19T04:33:22;19.25;18.25;7.00
77692;PMS5003;66984;47.404;18.836;2023-09-19T04:34:25;17.00;16.00;5.00
77692;PMS5003;66984;47.404;18.836;2023-09-19T04:35:28;14.00;12.25;4.00
77692;PMS5003;66984;47.404;18.836;2023-09-19T04:36:34;6.75;6.75;3.00
77692;PMS5003;66984;47.404;18.836;2023-09-19T04:37:39;4.00;4.00;1.25
77692;PMS5003;66984;47.404;18.836;2023-09-19T04:38:44;2.00;2.00;1.00
77692;PMS5003;66984;47.404;18.836;2023-09-19T04:39:47;1.00;1.00;0.00
77692;PMS5003;66984;47.404;18.836;2023-09-19T04:40:50;1.00;1.00;0.00
77692;PMS5003;66984;47.404;18.836;2023-09-19T04:41:59;1.00;0.75;0.00
77692;PMS5003;66984;47.404;18.836;2023-09-19T04:43:02;1.00;0.00;0.00
77692;PMS5003;66984;47.404;18.836;2023-09-19T04:44:05;1.00;0.00;0.00
77692;PMS5003;66984;47.404;18.836;2023-09-19T04:45:08;3.00;1.00;0.00
77692;PMS5003;66984;47.404;18.836;2023-09-19T04:46:12;1.50;1.50;0.00
77692;PMS5003;66984;47.404;18.836;2023-09-19T04:47:16;1.00;1.00;0.00
77692;PMS5003;66984;47.404;18.836;2023-09-19T04:48:19;0.00;0.00;0.00
77692;PMS5003;66984;47.404;18.836;2023-09-19T04:49:22;1.00;0.00;0.00
77692;PMS5003;66984;47.404;18.836;2023-09-19T04:50:25;0.00;0.00;0.00
77692;PMS5003;66984;47.404;18.836;2023-09-19T04:51:30;0.00;0.00;0.00
77692;PMS5003;66984;47.404;18.836;2023-09-19T04:52:38;0.00;0.00;0.00
77692;PMS5003;66984;47.404;18.836;2023-09-19T04:53:44;0.00;0.00;0.00
77692;PMS5003;66984;47.404;18.836;2023-09-19T04:54:47;0.00;0.00;0.00
77692;PMS5003;66984;47.404;18.836;2023-09-19T04:55:51;0.00;0.00;0.00
77692;PMS5003;66984;47.404;18.836;2023-09-19T04:56:58;0.00;0.00;0.00
77692;PMS5003;66984;47.404;18.836;2023-09-19T04:58:01;0.00;0.00;0.00
77692;PMS5003;66984;47.404;18.836;2023-09-19T04:59:05;0.00;0.00;0.00
77692;PMS5003;66984;47.404;18.836;2023-09-19T05:00:08;0.00;0.00;0.00
77692;PMS5003;66984;47.404;18.836;2023-09-19T05:01:15;0.00;0.00;0.00
77692;PMS5003;66984;47.404;18.836;2023-09-19T05:02:18;0.00;0.00;0.00
77692;PMS5003;66984;47.404;18.836;2023-09-19T05:03:22;0.00;0.00;0.00
77692;PMS5003;66984;47.404;18.836;2023-09-19T05:04:25;0.00;0.00;0.00
77692;PMS5003;66984;47.404;18.836;2023-09-19T05:05:28;0.00;0.00;0.00
77692;PMS5003;66984;47.404;18.836;2023-09-19T05:06:31;0.00;0.00;0.00
77692;PMS5003;66984;47.404;18.836;2023-09-19T05:07:34;0.00;0.00;0.00
77692;PMS5003;66984;47.404;18.836;2023-09-19T05:08:37;0.00;0.00;0.00
77692;PMS5003;66984;47.404;18.836;2023-09-19T05:09:41;0.00;0.00;0.00
77692;PMS5003;66984;47.404;18.836;2023-09-19T05:10:44;0.00;0.00;0.00
77692;PMS5003;66984;47.404;18.836;2023-09-19T05:11:47;0.00;0.00;0.00
77692;PMS5003;66984;47.404;18.836;2023-09-19T05:12:53;0.00;0.00;0.00
77692;PMS5003;66984;47.404;18.836;2023-09-19T05:13:57;0.00;0.00;0.00
77692;PMS5003;66984;47.404;18.836;2023-09-19T05:14:59;0.00;0.00;0.00
77692;PMS5003;66984;47.404;18.836;2023-09-19T05:16:03;0.00;0.00;0.00
77692;PMS5003;66984;47.404;18.836;2023-09-19T05:17:06;0.00;0.00;0.00
77692;PMS5003;66984;47.404;18.836;2023-09-19T05:18:10;0.00;0.00;0.00
77692;PMS5003;66984;47.404;18.836;2023-09-19T05:19:13;0.00;0.00;0.00
77692;PMS5003;66984;47.404;18.836;2023-09-19T05:20:16;0.00;0.00;0.00
77692;PMS5003;66984;47.404;18.836;2023-09-19T05:21:21;0.00;0.00;0.00
77692;PMS5003;66984;47.404;18.836;2023-09-19T05:22:26;0.00;0.00;0.00
77692;PMS5003;66984;47.404;18.836;2023-09-19T05:23:29;0.00;0.00;0.00
77692;PMS5003;66984;47.404;18.836;2023-09-19T05:24:33;0.00;0.00;0.00
77692;PMS5003;66984;47.404;18.836;2023-09-19T05:25:36;0.00;0.00;0.00
77692;PMS5003;66984;47.404;18.836;2023-09-19T05:26:41;0.00;0.00;0.00
77692;PMS5003;66984;47.404;18.836;2023-09-19T05:27:44;0.00;0.00;0.00
77692;PMS5003;66984;47.404;18.836;2023-09-19T05:28:47;0.00;0.00;0.00
77692;PMS5003;66984;47.404;18.836;2023-09-19T05:29:53;0.00;0.00;0.00
77692;PMS5003;66984;47.404;18.836;2023-09-19T05:31:00;0.00;0.00;0.00
77692;PMS5003;66984;47.404;18.836;2023-09-19T05:32:04;0.00;0.00;0.00
77692;PMS5003;66984;47.404;18.836;2023-09-19T05:33:08;0.00;0.00;0.00
77692;PMS5003;66984;47.404;18.836;2023-09-19T05:34:11;0.00;0.00;0.00
77692;PMS5003;66984;47.404;18.836;2023-09-19T05:35:14;0.00;0.00;0.00
77692;PMS5003;66984;47.404;18.836;2023-09-19T05:36:17;0.00;0.00;0.00
77692;PMS5003;66984;47.404;18.836;2023-09-19T05:37:20;0.00;0.00;0.00
77692;PMS5003;66984;47.404;18.836;2023-09-19T05:38:23;0.00;0.00;0.00
77692;PMS5003;66984;47.404;18.836;2023-09-19T05:39:27;0.00;0.00;0.00
77692;PMS5003;66984;47.404;18.836;2023-09-19T05:40:30;0.00;0.00;0.00
77692;PMS5003;66984;47.404;18.836;2023-09-19T05:41:33;0.00;0.00;0.00
77692;PMS5003;66984;47.404;18.836;2023-09-19T05:42:39;0.00;0.00;0.00
77692;PMS5003;66984;47.404;18.836;2023-09-19T05:43:43;0.00;0.00;0.00
77692;PMS5003;66984;47.404;18.836;2023-09-19T05:44:46;0.00;0.00;0.00
77692;PMS5003;66984;47.404;18.836;2023-09-19T05:45:50;0.00;0.00;0.00
77692;PMS5003;66984;47.404;18.836;2023-09-19T05:46:54;0.00;0.00;0.00
77692;PMS5003;66984;47.404;18.836;2023-09-19T05:48:07;54.00;41.75;20.50
77692;PMS5003;66984;47.404;18.836;2023-09-19T05:49:11;96.25;84.25;36.50
77692;PMS5003;66984;47.404;18.836;2023-09-19T05:50:15;77.50;67.00;31.00
77692;PMS5003;66984;47.404;18.836;2023-09-19T05:51:19;46.25;35.00;15.50
77692;PMS5003;66984;47.404;18.836;2023-09-19T05:52:25;12.75;10.50;0.00
77692;PMS5003;66984;47.404;18.836;2023-09-19T05:53:28;0.00;0.00;0.00
77692;PMS5003;66984;47.404;18.836;2023-09-19T05:54:31;0.00;0.00;0.00
77692;PMS5003;66984;47.404;18.836;2023-09-19T05:55:35;0.00;0.00;0.00
77692;PMS5003;66984;47.404;18.836;2023-09-19T05:56:38;0.00;0.00;0.00
77692;PMS5003;66984;47.404;18.836;2023-09-19T05:57:41;0.00;0.00;0.00
77692;PMS5003;66984;47.404;18.836;2023-09-19T05:58:45;0.00;0.00;0.00
77692;PMS5003;66984;47.404;18.836;2023-09-19T05:59:48;0.00;0.00;0.00
77692;PMS5003;66984;47.404;18.836;2023-09-19T06:00:53;0.00;0.00;0.00
77692;PMS5003;66984;47.404;18.836;2023-09-19T06:01:55;0.00;0.00;0.00
77692;PMS5003;66984;47.404;18.836;2023-09-19T06:02:59;0.00;0.00;0.00
77692;PMS5003;66984;47.404;18.836;2023-09-19T06:04:02;0.00;0.00;0.00
77692;PMS5003;66984;47.404;18.836;2023-09-19T06:05:07;0.00;0.00;0.00
77692;PMS5003;66984;47.404;18.836;2023-09-19T06:06:12;0.00;0.00;0.00
77692;PMS5003;66984;47.404;18.836;2023-09-19T06:07:15;0.00;0.00;0.00
77692;PMS5003;66984;47.404;18.836;2023-09-19T06:08:19;0.00;0.00;0.00
77692;PMS5003;66984;47.404;18.836;2023-09-19T06:09:22;0.00;0.00;0.00
77692;PMS5003;66984;47.404;18.836;2023-09-19T06:10:26;0.00;0.00;0.00
77692;PMS5003;66984;47.404;18.836;2023-09-19T06:11:30;0.00;0.00;0.00
77692;PMS5003;66984;47.404;18.836;2023-09-19T06:12:39;0.00;0.00;0.00
77692;PMS5003;66984;47.404;18.836;2023-09-19T06:13:46;0.00;0.00;0.00
77692;PMS5003;66984;47.404;18.836;2023-09-19T06:14:49;0.00;0.00;0.00
77692;PMS5003;66984;47.404;18.836;2023-09-19T06:15:53;0.00;0.00;0.00
77692;PMS5003;66984;47.404;18.836;2023-09-19T06:16:56;0.00;0.00;0.00
77692;PMS5003;66984;47.404;18.836;2023-09-19T06:17:59;0.00;0.00;0.00
77692;PMS5003;66984;47.404;18.836;2023-09-19T06:19:04;0.00;0.00;0.00